createdAt,value
2018-09-27T00:00:19.515Z,5.7
2018-09-27T00:00:49.621Z,5.9
2018-09-27T00:01:19.583Z,6.1
2018-09-27T00:01:49.317Z,5.8
2018-09-27T00:02:19.193Z,5.7
2018-09-27T00:02:49.174Z,5.5
2018-09-27T00:03:19.612Z,5.7
2018-09-27T00:03:49.360Z,6.1
2018-09-27T00:04:19.585Z,5.5
2018-09-27T00:04:49.207Z,5.9
2018-09-27T00:05:19.213Z,6
2018-09-27T00:05:49.093Z,5.8
2018-09-27T00:06:18.785Z,5.4
2018-09-27T00:06:48.380Z,5.2
2018-09-27T00:07:18.117Z,6
2018-09-27T00:07:47.800Z,5.7
2018-09-27T00:08:17.526Z,6.2
2018-09-27T00:08:47.041Z,6
2018-09-27T00:09:16.581Z,5.7
2018-09-27T00:09:46.088Z,6.2
2018-09-27T00:10:15.648Z,5.9
2018-09-27T00:10:45.495Z,5.5
2018-09-27T00:11:15.058Z,6
2018-09-27T00:11:45.778Z,6.1
2018-09-27T00:12:15.660Z,6
2018-09-27T00:12:45.831Z,5.6
2018-09-27T00:13:15.994Z,7
2018-09-27T00:13:45.648Z,5.4
2018-09-27T00:14:16.436Z,5.4
2018-09-27T00:14:46.190Z,6
2018-09-27T00:15:15.703Z,5.5
2018-09-27T00:15:45.470Z,5.6
2018-09-27T00:16:15.371Z,5.9
2018-09-27T00:16:45.329Z,5.8
2018-09-27T00:17:15.324Z,5.4
2018-09-27T00:17:45.226Z,5.5
2018-09-27T00:18:15.771Z,5.4
2018-09-27T00:18:45.233Z,5.6
2018-09-27T00:19:14.717Z,5.4
2018-09-27T00:19:44.209Z,5.8
2018-09-27T00:20:14.467Z,5.3
2018-09-27T00:20:43.796Z,5.6
2018-09-27T00:21:13.213Z,5.4
2018-09-27T00:21:42.581Z,5.2
2018-09-27T00:22:11.945Z,5.4
2018-09-27T00:22:42.181Z,5.1
2018-09-27T00:23:13.721Z,5
2018-09-27T00:23:43.080Z,5.6
2018-09-27T00:24:12.476Z,5.3
2018-09-27T00:24:41.873Z,5.6
2018-09-27T00:25:12.426Z,5.4
2018-09-27T00:25:41.935Z,5.3
2018-09-27T00:26:11.353Z,5.2
2018-09-27T00:26:40.876Z,5.2
2018-09-27T00:27:10.569Z,4.8
2018-09-27T00:27:39.940Z,5.6
2018-09-27T00:28:09.968Z,4.9
2018-09-27T00:28:39.426Z,5.1
2018-09-27T00:29:08.788Z,5.3
2018-09-27T00:29:38.313Z,5.3
2018-09-27T00:30:07.846Z,5.2
2018-09-27T00:30:37.344Z,5.8
2018-09-27T00:31:07.674Z,5
2018-09-27T00:31:38.435Z,5.4
2018-09-27T00:32:08.538Z,4.9
2018-09-27T00:32:38.205Z,5
2018-09-27T00:33:07.839Z,5.6
2018-09-27T00:33:37.275Z,4.9
2018-09-27T00:34:07.317Z,5.4
2018-09-27T00:34:36.990Z,5.1
2018-09-27T00:35:06.570Z,5.3
2018-09-27T00:35:36.249Z,5.1
2018-09-27T00:36:05.629Z,5.4
2018-09-27T00:36:35.645Z,5.5
2018-09-27T00:37:05.237Z,5.9
2018-09-27T00:37:34.699Z,5.8
2018-09-27T00:38:04.125Z,5.1
2018-09-27T00:38:33.540Z,5.4
2018-09-27T00:39:02.901Z,5.4
2018-09-27T00:39:32.845Z,5.1
2018-09-27T00:40:02.643Z,5.5
2018-09-27T00:40:32.368Z,5.9
2018-09-27T00:41:02.033Z,6.1
2018-09-27T00:41:32.325Z,5.7
2018-09-27T00:42:02.117Z,5.7
2018-09-27T00:42:31.989Z,5.8
2018-09-27T00:43:01.953Z,5.7
2018-09-27T00:43:32.477Z,6
2018-09-27T00:44:02.323Z,5.7
2018-09-27T00:44:32.671Z,6.1
2018-09-27T00:45:02.236Z,6.1
2018-09-27T00:45:31.601Z,5.8
2018-09-27T00:46:00.996Z,5.5
2018-09-27T00:46:30.504Z,5.9
2018-09-27T00:47:00.039Z,6
2018-09-27T00:47:29.672Z,5.9
2018-09-27T00:47:59.205Z,6.5
2018-09-27T00:48:28.768Z,6.6
2018-09-27T00:48:58.126Z,6
2018-09-27T00:49:27.624Z,6.8
2018-09-27T00:49:57.189Z,7.2
2018-09-27T00:50:26.776Z,6.9
2018-09-27T00:50:56.444Z,6.4
2018-09-27T00:51:26.348Z,6.4
2018-09-27T00:51:55.979Z,6.5
2018-09-27T00:52:25.847Z,5.6
2018-09-27T00:52:55.464Z,6.3
2018-09-27T00:53:25.245Z,5.7
2018-09-27T00:53:55.001Z,5.8
2018-09-27T00:54:24.367Z,5.7
2018-09-27T00:54:54.029Z,5.7
2018-09-27T00:55:23.735Z,6
2018-09-27T00:55:53.469Z,6.1
2018-09-27T00:56:23.031Z,6
2018-09-27T00:56:53.459Z,6
2018-09-27T00:57:23.306Z,5.9
2018-09-27T00:57:52.854Z,6.3
2018-09-27T00:58:22.575Z,6.4
2018-09-27T00:58:52.044Z,6.1
2018-09-27T00:59:21.650Z,6
2018-09-27T00:59:51.685Z,5.9
2018-09-27T01:00:21.189Z,5.6
2018-09-27T01:00:50.926Z,5.7
2018-09-27T01:01:20.440Z,5.8
2018-09-27T01:01:50.232Z,6.2
2018-09-27T01:02:20.272Z,5.9
2018-09-27T01:02:50.237Z,5.6
2018-09-27T01:03:20.042Z,5.8
2018-09-27T01:03:49.415Z,6
2018-09-27T01:04:19.101Z,5.8
2018-09-27T01:04:48.684Z,5.8
2018-09-27T01:05:18.626Z,5.8
2018-09-27T01:05:48.014Z,5.8
2018-09-27T01:06:17.568Z,5.9
2018-09-27T01:06:46.934Z,5.9
2018-09-27T01:07:16.592Z,5.8
2018-09-27T01:07:46.122Z,6.1
2018-09-27T01:08:15.849Z,5.8
2018-09-27T01:08:45.503Z,5.9
2018-09-27T01:09:15.388Z,5.8
2018-09-27T01:09:45.533Z,5.9
2018-09-27T01:10:15.121Z,5.9
2018-09-27T01:10:44.683Z,5.8
2018-09-27T01:11:14.267Z,5.8
2018-09-27T01:11:43.971Z,5.7
2018-09-27T01:12:13.804Z,5.7
2018-09-27T01:12:43.360Z,6
2018-09-27T01:13:12.981Z,5.9
2018-09-27T01:13:42.421Z,6
2018-09-27T01:14:12.026Z,5.3
2018-09-27T01:14:41.390Z,5.7
2018-09-27T01:15:10.818Z,6.1
2018-09-27T01:15:40.342Z,5.7
2018-09-27T01:16:09.835Z,5.8
2018-09-27T01:16:39.279Z,5.8
2018-09-27T01:17:08.990Z,5.9
2018-09-27T01:17:38.416Z,5.9
2018-09-27T01:18:07.853Z,5.4
2018-09-27T01:18:37.325Z,5.8
2018-09-27T01:19:06.685Z,5.8
2018-09-27T01:19:36.094Z,6.3
2018-09-27T01:20:06.444Z,6.3
2018-09-27T01:20:35.809Z,6.1
2018-09-27T01:21:05.172Z,6.4
2018-09-27T01:21:34.550Z,6.1
2018-09-27T01:22:03.922Z,6.2
2018-09-27T01:22:33.426Z,6.2
2018-09-27T01:23:04.683Z,5.8
2018-09-27T01:23:34.449Z,6.1
2018-09-27T01:24:03.806Z,6.5
2018-09-27T01:24:33.169Z,6.4
2018-09-27T01:25:02.709Z,6.1
2018-09-27T01:25:32.075Z,6.3
2018-09-27T01:26:01.436Z,6.1
2018-09-27T01:26:30.812Z,6.2
2018-09-27T01:27:00.179Z,6.5
2018-09-27T01:27:29.589Z,6.2
2018-09-27T01:27:59.115Z,5.9
2018-09-27T01:28:29.685Z,6.3
2018-09-27T01:28:59.288Z,6.2
2018-09-27T01:29:28.869Z,5.8
2018-09-27T01:29:58.240Z,6.3
2018-09-27T01:30:27.599Z,6.7
2018-09-27T01:30:57.129Z,6.4
2018-09-27T01:31:26.578Z,6.3
2018-09-27T01:31:55.944Z,6.5
2018-09-27T01:32:25.333Z,6.3
2018-09-27T01:32:54.834Z,6.2
2018-09-27T01:33:24.224Z,6.7
2018-09-27T01:33:53.672Z,6
2018-09-27T01:34:23.161Z,6.1
2018-09-27T01:34:52.942Z,6.9
2018-09-27T01:35:22.355Z,6
2018-09-27T01:35:51.677Z,6.8
2018-09-27T01:36:21.085Z,6.7
2018-09-27T01:36:50.816Z,6.8
2018-09-27T01:37:20.042Z,7.1
2018-09-27T01:37:49.445Z,7.1
2018-09-27T01:38:19.110Z,7
2018-09-27T01:38:48.954Z,6.5
2018-09-27T01:39:18.315Z,6.7
2018-09-27T01:39:47.734Z,6.7
2018-09-27T01:40:17.121Z,6.6
2018-09-27T01:40:46.560Z,6.4
2018-09-27T01:41:15.927Z,6.8
2018-09-27T01:41:45.311Z,6.4
2018-09-27T01:42:14.826Z,6.7
2018-09-27T01:42:44.323Z,6.4
2018-09-27T01:43:14.107Z,6.1
2018-09-27T01:43:43.520Z,5.8
2018-09-27T01:44:13.089Z,6
2018-09-27T01:44:42.740Z,6
2018-09-27T01:45:12.072Z,6.3
2018-09-27T01:45:41.447Z,6.4
2018-09-27T01:46:10.848Z,5.9
2018-09-27T01:46:40.342Z,6
2018-09-27T01:47:10.028Z,6.3
2018-09-27T01:47:39.449Z,5.5
2018-09-27T01:48:08.829Z,6.1
2018-09-27T01:48:38.287Z,5.9
2018-09-27T01:49:07.659Z,6.5
2018-09-27T01:49:37.175Z,6.4
2018-09-27T01:50:06.699Z,6.6
2018-09-27T01:50:36.067Z,6.5
2018-09-27T01:51:05.441Z,6.3
2018-09-27T01:51:34.916Z,6.5
2018-09-27T01:52:04.356Z,6.5
2018-09-27T01:52:33.911Z,6.3
2018-09-27T01:53:03.459Z,6.9
2018-09-27T01:53:33.081Z,6.1
2018-09-27T01:54:02.785Z,6.1
2018-09-27T01:54:32.140Z,6.4
2018-09-27T01:55:01.597Z,6.4
2018-09-27T01:55:31.062Z,6.6
2018-09-27T01:56:00.653Z,5.8
2018-09-27T01:56:30.299Z,6.3
2018-09-27T01:56:59.662Z,6.3
2018-09-27T01:57:29.121Z,6.1
2018-09-27T01:57:58.650Z,6.3
2018-09-27T01:58:28.017Z,6.1
2018-09-27T01:58:57.439Z,6.3
2018-09-27T01:59:26.875Z,6
2018-09-27T01:59:56.255Z,6.5
2018-09-27T02:00:25.733Z,6.1
2018-09-27T02:00:55.263Z,6.5
2018-09-27T02:01:24.784Z,6.2
2018-09-27T02:01:55.397Z,6.5
2018-09-27T02:02:25.918Z,6.6
2018-09-27T02:02:56.421Z,6.5
2018-09-27T02:03:26.020Z,6
2018-09-27T02:03:55.627Z,6.2
2018-09-27T02:04:25.992Z,6.3
2018-09-27T02:04:55.504Z,6.1
2018-09-27T02:05:25.025Z,5.9
2018-09-27T02:05:54.636Z,6.3
2018-09-27T02:06:24.009Z,6.1
2018-09-27T02:06:53.373Z,6
2018-09-27T02:07:22.901Z,6.5
2018-09-27T02:07:52.336Z,6.6
2018-09-27T02:08:21.937Z,6.2
2018-09-27T02:08:51.337Z,6.1
2018-09-27T02:09:21.008Z,6.3
2018-09-27T02:09:50.490Z,6
2018-09-27T02:10:19.850Z,6.7
2018-09-27T02:10:49.219Z,6.4
2018-09-27T02:11:18.702Z,6.2
2018-09-27T02:11:48.076Z,6.2
2018-09-27T02:12:17.445Z,6.3
2018-09-27T02:12:47.052Z,6
2018-09-27T02:13:16.732Z,5.9
2018-09-27T02:13:46.182Z,6.2
2018-09-27T02:14:15.639Z,6.3
2018-09-27T02:14:45.123Z,6.7
2018-09-27T02:15:14.740Z,6.3
2018-09-27T02:15:44.074Z,6
2018-09-27T02:16:13.459Z,6.5
2018-09-27T02:16:42.968Z,6.4
2018-09-27T02:17:12.436Z,6.8
2018-09-27T02:17:41.893Z,6.7
2018-09-27T02:18:11.272Z,6
2018-09-27T02:18:40.645Z,5.9
2018-09-27T02:19:10.080Z,6.1
2018-09-27T02:19:39.463Z,6.3
2018-09-27T02:20:08.844Z,6.5
2018-09-27T02:20:38.231Z,6
2018-09-27T02:21:08.904Z,6
2018-09-27T02:21:38.571Z,6.2
2018-09-27T02:22:07.951Z,6.1
2018-09-27T02:22:37.419Z,5.6
2018-09-27T02:23:06.810Z,6.4
2018-09-27T02:23:36.424Z,6.2
2018-09-27T02:24:06.121Z,5.8
2018-09-27T02:24:35.642Z,6.3
2018-09-27T02:25:05.092Z,6.7
2018-09-27T02:25:34.763Z,6.1
2018-09-27T02:26:04.365Z,6.4
2018-09-27T02:26:33.795Z,6.1
2018-09-27T02:27:03.236Z,6.3
2018-09-27T02:27:32.651Z,6.5
2018-09-27T02:28:02.028Z,6.2
2018-09-27T02:28:31.499Z,5.9
2018-09-27T02:29:00.867Z,6.5
2018-09-27T02:29:31.757Z,6
2018-09-27T02:30:01.768Z,6.3
2018-09-27T02:30:31.509Z,6
2018-09-27T02:31:00.973Z,6.3
2018-09-27T02:31:30.583Z,5.9
2018-09-27T02:32:00.019Z,6.2
2018-09-27T02:32:29.485Z,6.5
2018-09-27T02:32:59.948Z,6.5
2018-09-27T02:33:29.534Z,6.5
2018-09-27T02:33:58.939Z,6
2018-09-27T02:34:28.581Z,6.4
2018-09-27T02:34:58.148Z,6.4
2018-09-27T02:35:28.015Z,6.1
2018-09-27T02:35:57.976Z,5.9
2018-09-27T02:36:28.027Z,6.2
2018-09-27T02:36:57.546Z,6.2
2018-09-27T02:37:27.175Z,5.9
2018-09-27T02:37:56.574Z,6.5
2018-09-27T02:38:25.948Z,6.4
2018-09-27T02:38:56.538Z,6.2
2018-09-27T02:39:25.915Z,6.3
2018-09-27T02:39:55.426Z,6.2
2018-09-27T02:40:24.845Z,6.1
2018-09-27T02:40:55.191Z,6.4
2018-09-27T02:41:24.568Z,5.8
2018-09-27T02:41:53.930Z,6
2018-09-27T02:42:23.509Z,6
2018-09-27T02:42:53.288Z,5.7
2018-09-27T02:43:23.000Z,5.7
2018-09-27T02:43:52.915Z,5.9
2018-09-27T02:44:22.618Z,6
2018-09-27T02:44:52.650Z,5.8
2018-09-27T02:45:22.341Z,5.7
2018-09-27T02:45:51.810Z,6.1
2018-09-27T02:46:21.194Z,6.3
2018-09-27T02:46:50.931Z,6.2
2018-09-27T02:47:20.506Z,6.3
2018-09-27T02:47:49.868Z,6.1
2018-09-27T02:48:20.031Z,6.2
2018-09-27T02:48:49.412Z,6.3
2018-09-27T02:49:18.909Z,6.3
2018-09-27T02:49:48.490Z,6.2
2018-09-27T02:50:18.048Z,6
2018-09-27T02:50:48.739Z,6.3
2018-09-27T02:51:18.122Z,6
2018-09-27T02:51:47.726Z,6.1
2018-09-27T02:52:17.180Z,6.5
2018-09-27T02:52:46.805Z,6.2
2018-09-27T02:53:16.198Z,6.1
2018-09-27T02:53:46.211Z,6.5
2018-09-27T02:54:15.968Z,6.2
2018-09-27T02:54:45.427Z,6.3
2018-09-27T02:55:14.910Z,6.4
2018-09-27T02:55:44.382Z,6.4
2018-09-27T02:56:13.808Z,5.8
2018-09-27T02:56:43.176Z,5.8
2018-09-27T02:57:13.209Z,5.8
2018-09-27T02:57:42.575Z,6.5
2018-09-27T02:58:12.164Z,6.3
2018-09-27T02:58:41.601Z,6.2
2018-09-27T02:59:10.991Z,6.5
2018-09-27T02:59:40.683Z,6.2
2018-09-27T03:00:10.053Z,6.3
2018-09-27T03:00:39.547Z,6.1
2018-09-27T03:01:08.925Z,6.1
2018-09-27T03:01:38.796Z,6.3
2018-09-27T03:02:09.440Z,5.9
2018-09-27T03:02:38.893Z,6.4
2018-09-27T03:03:09.252Z,6.1
2018-09-27T03:03:38.857Z,6.4
2018-09-27T03:04:08.222Z,6
2018-09-27T03:04:37.895Z,6
2018-09-27T03:05:08.261Z,6
2018-09-27T03:05:37.750Z,6.4
2018-09-27T03:06:07.818Z,6
2018-09-27T03:06:37.561Z,5.9
2018-09-27T03:07:07.130Z,5.9
2018-09-27T03:07:36.509Z,6
2018-09-27T03:08:06.140Z,5.8
2018-09-27T03:08:35.785Z,6
2018-09-27T03:09:05.685Z,6.2
2018-09-27T03:09:35.278Z,5.9
2018-09-27T03:10:05.727Z,6.1
2018-09-27T03:10:35.164Z,6.2
2018-09-27T03:11:04.788Z,6.1
2018-09-27T03:11:34.300Z,6.2
2018-09-27T03:12:04.220Z,5.8
2018-09-27T03:12:33.918Z,6
2018-09-27T03:13:03.442Z,6.2
2018-09-27T03:13:32.974Z,6
2018-09-27T03:14:02.523Z,6
2018-09-27T03:14:31.720Z,5.6
2018-09-27T03:15:01.307Z,6.1
2018-09-27T03:15:30.687Z,6
2018-09-27T03:16:00.108Z,5.1
2018-09-27T03:16:29.471Z,6
2018-09-27T03:16:58.854Z,6
2018-09-27T03:17:29.217Z,5.7
2018-09-27T03:17:58.589Z,6
2018-09-27T03:18:28.139Z,5.6
2018-09-27T03:18:58.906Z,5.7
2018-09-27T03:19:28.536Z,6.2
2018-09-27T03:19:57.902Z,5.6
2018-09-27T03:20:28.444Z,6
2018-09-27T03:20:57.921Z,6
2018-09-27T03:21:27.239Z,5.9
2018-09-27T03:21:56.599Z,5.6
2018-09-27T03:22:25.954Z,6.2
2018-09-27T03:22:55.314Z,6.2
2018-09-27T03:23:24.676Z,6.4
2018-09-27T03:23:54.030Z,5.7
2018-09-27T03:24:23.378Z,5.9
2018-09-27T03:24:53.749Z,5.8
2018-09-27T03:25:23.106Z,6.2
2018-09-27T03:25:52.465Z,5.8
2018-09-27T03:26:21.875Z,6.1
2018-09-27T03:26:51.240Z,6.2
2018-09-27T03:27:21.607Z,6
2018-09-27T03:27:50.967Z,6.1
2018-09-27T03:28:20.330Z,6.1
2018-09-27T03:28:49.691Z,5.9
2018-09-27T03:29:19.060Z,6
2018-09-27T03:29:48.482Z,6
2018-09-27T03:30:17.843Z,6.1
2018-09-27T03:30:47.208Z,5.4
2018-09-27T03:31:16.622Z,5.9
2018-09-27T03:31:45.983Z,5.9
2018-09-27T03:32:15.348Z,6.5
2018-09-27T03:32:44.713Z,6.1
2018-09-27T03:33:14.065Z,6
2018-09-27T03:33:43.447Z,6.1
2018-09-27T03:34:12.809Z,6.2
2018-09-27T03:34:42.166Z,6.2
2018-09-27T03:35:11.525Z,6.2
2018-09-27T03:35:40.905Z,6
2018-09-27T03:36:10.261Z,5.4
2018-09-27T03:36:39.692Z,5.8
2018-09-27T03:37:09.050Z,5.6
2018-09-27T03:37:38.413Z,6.3
2018-09-27T03:38:08.781Z,6
2018-09-27T03:38:38.149Z,5.7
2018-09-27T03:39:07.496Z,5.9
2018-09-27T03:39:36.863Z,5.8
2018-09-27T03:40:06.280Z,5.8
2018-09-27T03:40:35.730Z,6.3
2018-09-27T03:41:04.948Z,5.7
2018-09-27T03:41:34.355Z,5.6
2018-09-27T03:42:04.718Z,5.8
2018-09-27T03:42:34.081Z,6.1
2018-09-27T03:43:03.441Z,6.2
2018-09-27T03:43:32.810Z,6.2
2018-09-27T03:44:03.164Z,5.9
2018-09-27T03:44:32.526Z,5.6
2018-09-27T03:45:01.893Z,6.4
2018-09-27T03:45:31.277Z,6.2
2018-09-27T03:46:00.660Z,6.1
2018-09-27T03:46:30.073Z,5.9
2018-09-27T03:47:00.428Z,6.3
2018-09-27T03:47:29.794Z,5.5
2018-09-27T03:47:59.156Z,5.9
2018-09-27T03:48:28.540Z,5.7
2018-09-27T03:48:57.903Z,6.4
2018-09-27T03:49:27.266Z,6.1
2018-09-27T03:49:56.632Z,5.9
2018-09-27T03:50:25.994Z,6.4
2018-09-27T03:50:55.421Z,5.7
2018-09-27T03:51:24.802Z,5.8
2018-09-27T03:51:54.199Z,5.8
2018-09-27T03:52:23.610Z,6.2
2018-09-27T03:52:52.989Z,5.9
2018-09-27T03:53:22.353Z,6.1
2018-09-27T03:53:51.721Z,6.9
2018-09-27T03:54:22.072Z,6.2
2018-09-27T03:54:51.440Z,6.2
2018-09-27T03:55:20.807Z,6.2
2018-09-27T03:55:50.165Z,6.1
2018-09-27T03:56:19.522Z,6.5
2018-09-27T03:56:48.939Z,6
2018-09-27T03:57:18.298Z,6
2018-09-27T03:57:47.657Z,6.4
2018-09-27T03:58:17.020Z,6.3
2018-09-27T03:58:46.386Z,6.3
2018-09-27T03:59:15.760Z,6.3
2018-09-27T03:59:45.111Z,6
2018-09-27T04:00:14.487Z,5.9
2018-09-27T04:00:43.848Z,5.7
2018-09-27T04:01:13.212Z,5.8
2018-09-27T04:01:42.612Z,5.8
2018-09-27T04:02:13.018Z,5.9
2018-09-27T04:02:42.378Z,5.5
2018-09-27T04:03:11.795Z,6
2018-09-27T04:03:41.140Z,6.7
2018-09-27T04:04:10.515Z,11.7
2018-09-27T04:04:39.889Z,11.4
2018-09-27T04:05:09.247Z,7.5
2018-09-27T04:05:38.603Z,6.4
2018-09-27T04:06:07.966Z,7
2018-09-27T04:06:37.346Z,6.8
2018-09-27T04:07:06.769Z,6.2
2018-09-27T04:07:36.136Z,6.3
2018-09-27T04:08:05.497Z,6.5
2018-09-27T04:08:34.880Z,6.8
2018-09-27T04:09:04.235Z,6.3
2018-09-27T04:09:34.585Z,5.8
2018-09-27T04:10:03.963Z,5.4
2018-09-27T04:10:33.338Z,6
2018-09-27T04:11:02.696Z,5.9
2018-09-27T04:11:32.063Z,5.9
2018-09-27T04:12:01.423Z,6.1
2018-09-27T04:12:30.838Z,5.9
2018-09-27T04:13:00.206Z,6
2018-09-27T04:13:29.551Z,5.9
2018-09-27T04:13:58.914Z,5.8
2018-09-27T04:14:29.270Z,6
2018-09-27T04:14:58.668Z,5.8
2018-09-27T04:15:28.031Z,6
2018-09-27T04:15:57.427Z,5.7
2018-09-27T04:16:26.767Z,6.4
2018-09-27T04:16:56.141Z,6
2018-09-27T04:17:25.573Z,6.1
2018-09-27T04:17:55.029Z,6.2
2018-09-27T04:18:24.389Z,5.9
2018-09-27T04:18:53.746Z,6.2
2018-09-27T04:19:23.103Z,6.2
2018-09-27T04:19:52.463Z,6.6
2018-09-27T04:20:21.821Z,5.9
2018-09-27T04:20:51.181Z,5.9
2018-09-27T04:21:21.532Z,5.5
2018-09-27T04:21:51.006Z,5.7
2018-09-27T04:22:20.247Z,6
2018-09-27T04:22:49.670Z,6.1
2018-09-27T04:23:19.025Z,6.3
2018-09-27T04:23:48.392Z,6.6
2018-09-27T04:24:17.748Z,6.4
2018-09-27T04:24:47.099Z,6.3
2018-09-27T04:25:16.461Z,6.5
2018-09-27T04:25:45.820Z,6.6
2018-09-27T04:26:15.181Z,6.2
2018-09-27T04:26:44.576Z,5.9
2018-09-27T04:27:13.933Z,6.2
2018-09-27T04:27:43.349Z,5.9
2018-09-27T04:28:12.720Z,6.3
2018-09-27T04:28:42.090Z,5.8
2018-09-27T04:29:11.446Z,6.3
2018-09-27T04:29:40.801Z,6.5
2018-09-27T04:30:10.157Z,7.3
2018-09-27T04:30:39.535Z,7
2018-09-27T04:31:08.894Z,6.4
2018-09-27T04:31:38.271Z,6.6
2018-09-27T04:32:08.657Z,6.9
2018-09-27T04:32:38.004Z,6.8
2018-09-27T04:33:08.405Z,6.9
2018-09-27T04:33:37.824Z,6.5
2018-09-27T04:34:08.124Z,6.8
2018-09-27T04:34:37.483Z,6.8
2018-09-27T04:35:06.848Z,6.9
2018-09-27T04:35:36.206Z,6.9
2018-09-27T04:36:05.566Z,6.8
2018-09-27T04:36:34.935Z,6.7
2018-09-27T04:37:04.311Z,6.9
2018-09-27T04:37:33.677Z,7.2
2018-09-27T04:38:03.142Z,7.4
2018-09-27T04:38:32.460Z,7.5
2018-09-27T04:39:01.832Z,6.9
2018-09-27T04:39:31.192Z,7.1
2018-09-27T04:40:00.556Z,6.7
2018-09-27T04:40:29.924Z,7
2018-09-27T04:40:59.304Z,7.1
2018-09-27T04:41:28.657Z,7
2018-09-27T04:41:58.033Z,6.8
2018-09-27T04:42:27.388Z,6.3
2018-09-27T04:42:56.768Z,6.6
2018-09-27T04:43:26.176Z,6.7
2018-09-27T04:43:55.554Z,6.8
2018-09-27T04:44:25.918Z,6.6
2018-09-27T04:44:55.281Z,7
2018-09-27T04:45:24.639Z,6.7
2018-09-27T04:45:54.127Z,7
2018-09-27T04:46:23.366Z,6.7
2018-09-27T04:46:52.742Z,7.2
2018-09-27T04:47:22.106Z,6.9
2018-09-27T04:47:51.458Z,7.2
2018-09-27T04:48:21.866Z,7.4
2018-09-27T04:48:51.231Z,7.4
2018-09-27T04:49:20.589Z,7.2
2018-09-27T04:49:49.960Z,6.8
2018-09-27T04:50:19.326Z,6.5
2018-09-27T04:50:48.690Z,6.9
2018-09-27T04:51:18.967Z,6.8
2018-09-27T04:51:48.378Z,7
2018-09-27T04:52:17.704Z,7.5
2018-09-27T04:52:47.068Z,7.2
2018-09-27T04:53:16.430Z,7.1
2018-09-27T04:53:45.832Z,7.2
2018-09-27T04:54:15.191Z,7.4
2018-09-27T04:54:44.555Z,7.3
2018-09-27T04:55:13.922Z,6.9
2018-09-27T04:55:43.273Z,6.7
2018-09-27T04:56:12.640Z,8
2018-09-27T04:56:42.013Z,9
2018-09-27T04:57:11.395Z,7.1
2018-09-27T04:57:40.755Z,7.2
2018-09-27T04:58:10.117Z,7.2
2018-09-27T04:58:39.473Z,7.4
2018-09-27T04:59:08.879Z,7.2
2018-09-27T04:59:39.230Z,7.4
2018-09-27T05:00:08.648Z,7.3
2018-09-27T05:00:37.961Z,7.3
2018-09-27T05:01:07.320Z,7.6
2018-09-27T05:01:37.670Z,7.6
2018-09-27T05:02:07.026Z,7.2
2018-09-27T05:02:36.393Z,7.1
2018-09-27T05:03:05.745Z,7.3
2018-09-27T05:03:35.109Z,7
2018-09-27T05:04:04.529Z,6.6
2018-09-27T05:04:33.889Z,6.8
2018-09-27T05:05:03.248Z,7.1
2018-09-27T05:05:33.597Z,7.3
2018-09-27T05:06:02.957Z,6.2
2018-09-27T05:06:32.368Z,6.8
2018-09-27T05:07:01.698Z,6.9
2018-09-27T05:07:31.052Z,6.6
2018-09-27T05:08:00.449Z,6.7
2018-09-27T05:08:29.816Z,6.6
2018-09-27T05:08:59.238Z,6.5
2018-09-27T05:09:28.624Z,6.9
2018-09-27T05:09:57.971Z,6.7
2018-09-27T05:10:27.361Z,6.7
2018-09-27T05:10:56.763Z,6.6
2018-09-27T05:11:26.144Z,6.6
2018-09-27T05:11:55.515Z,7
2018-09-27T05:12:24.878Z,7.2
2018-09-27T05:12:54.294Z,6.7
2018-09-27T05:13:23.662Z,6.3
2018-09-27T05:13:53.019Z,6.2
2018-09-27T05:14:22.440Z,6.1
2018-09-27T05:14:51.809Z,6.4
2018-09-27T05:15:21.174Z,6.5
2018-09-27T05:15:50.573Z,6.2
2018-09-27T05:16:19.918Z,6.6
2018-09-27T05:16:49.294Z,6.7
2018-09-27T05:17:18.684Z,6.4
2018-09-27T05:17:48.049Z,6.1
2018-09-27T05:18:17.447Z,6.3
2018-09-27T05:18:46.815Z,6.5
2018-09-27T05:19:16.181Z,6.6
2018-09-27T05:19:46.590Z,6.2
2018-09-27T05:20:15.957Z,6.6
2018-09-27T05:20:45.317Z,7
2018-09-27T05:21:14.672Z,6.3
2018-09-27T05:21:44.155Z,6.5
2018-09-27T05:22:13.388Z,6.6
2018-09-27T05:22:43.767Z,6
2018-09-27T05:23:13.223Z,5.9
2018-09-27T05:23:42.584Z,6.3
2018-09-27T05:24:11.949Z,5.8
2018-09-27T05:24:41.405Z,5.5
2018-09-27T05:25:10.747Z,5.9
2018-09-27T05:25:41.132Z,5.7
2018-09-27T05:26:10.462Z,5.7
2018-09-27T05:26:39.856Z,6
2018-09-27T05:27:09.306Z,5.8
2018-09-27T05:27:38.691Z,5.9
2018-09-27T05:28:09.024Z,6.1
2018-09-27T05:28:38.394Z,6.3
2018-09-27T05:29:07.757Z,5.9
2018-09-27T05:29:37.171Z,5.7
2018-09-27T05:30:06.546Z,6
2018-09-27T05:30:35.924Z,5.9
2018-09-27T05:31:05.298Z,6.3
2018-09-27T05:31:34.662Z,5.9
2018-09-27T05:32:04.070Z,6.1
2018-09-27T05:32:33.447Z,5.9
2018-09-27T05:33:02.836Z,5.8
2018-09-27T05:33:32.227Z,6.4
2018-09-27T05:34:01.578Z,5.7
2018-09-27T05:34:30.945Z,6.1
2018-09-27T05:35:00.358Z,5.7
2018-09-27T05:35:29.725Z,5.9
2018-09-27T05:35:59.092Z,6.1
2018-09-27T05:36:28.467Z,6.1
2018-09-27T05:36:57.832Z,6
2018-09-27T05:37:27.206Z,6.3
2018-09-27T05:37:56.565Z,6.3
2018-09-27T05:38:25.946Z,5.9
2018-09-27T05:38:55.312Z,6.4
2018-09-27T05:39:24.728Z,6.6
2018-09-27T05:39:54.057Z,7.8
2018-09-27T05:40:23.499Z,9.1
2018-09-27T05:40:52.867Z,8.8
2018-09-27T05:41:22.240Z,8.6
2018-09-27T05:41:51.617Z,9.2
2018-09-27T05:42:20.986Z,9.2
2018-09-27T05:42:50.357Z,8.9
2018-09-27T05:43:19.734Z,9.3
2018-09-27T05:43:49.097Z,9.2
2018-09-27T05:44:18.474Z,8.8
2018-09-27T05:44:47.844Z,9
2018-09-27T05:45:17.265Z,9.4
2018-09-27T05:45:46.637Z,8.8
2018-09-27T05:46:16.002Z,9
2018-09-27T05:46:45.366Z,8.9
2018-09-27T05:47:14.745Z,9.2
2018-09-27T05:47:44.105Z,9.3
2018-09-27T05:48:13.474Z,9.4
2018-09-27T05:48:42.854Z,9.4
2018-09-27T05:49:12.270Z,9.4
2018-09-27T05:49:41.586Z,10.2
2018-09-27T05:50:10.961Z,10
2018-09-27T05:50:40.387Z,9.9
2018-09-27T05:51:09.762Z,9.9
2018-09-27T05:51:39.247Z,9.7
2018-09-27T05:52:08.612Z,10.2
2018-09-27T05:52:37.967Z,9.7
2018-09-27T05:53:07.340Z,10
2018-09-27T05:53:36.730Z,10.2
2018-09-27T05:54:06.132Z,10
2018-09-27T05:54:35.535Z,9.7
2018-09-27T05:55:04.915Z,9.9
2018-09-27T05:55:35.323Z,10.5
2018-09-27T05:56:04.687Z,9.8
2018-09-27T05:56:34.060Z,10.6
2018-09-27T05:57:03.421Z,10.3
2018-09-27T05:57:32.816Z,10.5
2018-09-27T05:58:02.243Z,10.1
2018-09-27T05:58:31.664Z,10.3
2018-09-27T05:59:01.033Z,10.3
2018-09-27T05:59:30.521Z,10.4
2018-09-27T05:59:59.896Z,11
2018-09-27T06:00:29.340Z,10.5
2018-09-27T06:00:58.770Z,10.3
2018-09-27T06:01:28.185Z,10.2
2018-09-27T06:01:57.618Z,10.4
2018-09-27T06:02:26.930Z,10.4
2018-09-27T06:02:56.300Z,9.6
2018-09-27T06:03:25.730Z,9.8
2018-09-27T06:03:55.118Z,10.1
2018-09-27T06:04:24.450Z,10.3
2018-09-27T06:04:53.857Z,9.9
2018-09-27T06:05:23.223Z,9.9
2018-09-27T06:05:52.675Z,9.9
2018-09-27T06:06:23.041Z,10.4
2018-09-27T06:06:52.412Z,10.1
2018-09-27T06:07:21.778Z,10
2018-09-27T06:07:51.174Z,10.2
2018-09-27T06:08:20.546Z,9.9
2018-09-27T06:08:49.965Z,9.9
2018-09-27T06:09:19.333Z,9.4
2018-09-27T06:09:49.706Z,10.3
2018-09-27T06:10:19.069Z,10
2018-09-27T06:10:48.488Z,10.1
2018-09-27T06:11:17.868Z,9.7
2018-09-27T06:11:47.197Z,9.9
2018-09-27T06:12:16.578Z,9.9
2018-09-27T06:12:45.939Z,9.9
2018-09-27T06:13:15.309Z,9.4
2018-09-27T06:13:44.674Z,8.8
2018-09-27T06:14:14.045Z,9
2018-09-27T06:14:43.411Z,8.5
2018-09-27T06:15:13.796Z,8.1
2018-09-27T06:15:43.248Z,7.8
2018-09-27T06:16:12.611Z,7.7
2018-09-27T06:16:41.988Z,8.1
2018-09-27T06:17:11.344Z,7.5
2018-09-27T06:17:40.730Z,7.5
2018-09-27T06:18:10.120Z,7.5
2018-09-27T06:18:39.487Z,6.9
2018-09-27T06:19:08.865Z,6.9
2018-09-27T06:19:38.258Z,6.6
2018-09-27T06:20:07.620Z,6.6
2018-09-27T06:20:37.006Z,6.3
2018-09-27T06:21:06.362Z,6.3
2018-09-27T06:21:35.802Z,6.1
2018-09-27T06:22:05.155Z,5.7
2018-09-27T06:22:34.512Z,5.9
2018-09-27T06:23:03.897Z,5.7
2018-09-27T06:23:33.282Z,5.9
2018-09-27T06:24:02.665Z,6
2018-09-27T06:24:32.039Z,6.2
2018-09-27T06:25:01.397Z,5.5
2018-09-27T06:25:30.772Z,5.8
2018-09-27T06:26:00.154Z,5.7
2018-09-27T06:26:29.594Z,5.7
2018-09-27T06:26:58.973Z,5.5
2018-09-27T06:27:28.370Z,5.6
2018-09-27T06:27:57.725Z,5.7
2018-09-27T06:28:27.095Z,5.4
2018-09-27T06:28:57.484Z,5.3
2018-09-27T06:29:26.853Z,5.4
2018-09-27T06:29:56.217Z,5.5
2018-09-27T06:30:25.596Z,5.7
2018-09-27T06:30:55.002Z,5.5
2018-09-27T06:31:24.430Z,5.6
2018-09-27T06:31:53.801Z,5.2
2018-09-27T06:32:23.176Z,5.4
2018-09-27T06:32:52.547Z,5.6
2018-09-27T06:33:21.950Z,5.7
2018-09-27T06:33:51.304Z,6.1
2018-09-27T06:34:20.656Z,5.8
2018-09-27T06:34:50.035Z,5.8
2018-09-27T06:35:19.422Z,5.7
2018-09-27T06:35:48.781Z,6.3
2018-09-27T06:36:18.147Z,6.3
2018-09-27T06:36:47.601Z,7.1
2018-09-27T06:37:16.964Z,6.7
2018-09-27T06:37:46.342Z,6.2
2018-09-27T06:38:15.725Z,5.8
2018-09-27T06:38:45.180Z,5.8
2018-09-27T06:39:14.471Z,6.3
2018-09-27T06:39:43.837Z,6
2018-09-27T06:40:13.245Z,5.6
2018-09-27T06:40:42.615Z,5.9
2018-09-27T06:41:11.985Z,6.2
2018-09-27T06:41:41.347Z,5.6
2018-09-27T06:42:10.780Z,5.6
2018-09-27T06:42:40.155Z,5.6
2018-09-27T06:43:09.539Z,5.4
2018-09-27T06:43:38.914Z,5.5
2018-09-27T06:44:08.278Z,5.3
2018-09-27T06:44:37.704Z,5.6
2018-09-27T06:45:07.013Z,5.1
2018-09-27T06:45:36.429Z,4.9
2018-09-27T06:46:05.770Z,5
2018-09-27T06:46:35.136Z,4.9
2018-09-27T06:47:04.554Z,5.3
2018-09-27T06:47:33.919Z,4.7
2018-09-27T06:48:03.285Z,4.7
2018-09-27T06:48:32.675Z,5
2018-09-27T06:49:02.013Z,5
2018-09-27T06:49:31.377Z,5.8
2018-09-27T06:50:00.749Z,4.7